Time;durP1;ratioP1;P1;durP2;ratioP2;P2;SDS_P1;SDS_P2;PMS_P1;PMS_P2;Temp;Humidity;BMP_temperature;BMP_pressure;BME280_temperature;BME280_humidity;BME280_pressure;Samples;Min_cycle;Max_cycle;Signal;HPM_P1;HPM_P2
2022/06/12 00:00:47;;;;;;;;;;;;;;;;;;5016210;28;20063;-30
2022/06/12 00:03:13;;;;;;;;;;;;;;;;;;5015297;28;19936;-29
2022/06/12 00:05:39;;;;;;;;;;;;;;;;;;5015653;28;19968;-29
2022/06/12 00:08:05;;;;;;;;;;;;;;;;;;5015609;28;19914;-29
2022/06/12 00:10:31;;;;;;;;;;;;;;;;;;5016381;28;19925;-29
2022/06/12 00:12:57;;;;;;;;;;;;;;;;;;5015611;28;19913;-29
2022/06/12 00:15:24;;;;;;;;;;;;;;;;;;5015688;28;19914;-29
2022/06/12 00:17:50;;;;;;;;;;;;;;;;;;5015708;28;19952;-30
2022/06/12 00:20:16;;;;;;;;;;;;;;;;;;5015395;28;19964;-29
2022/06/12 00:22:43;;;;;;;;;;;;;;;;;;5015681;28;20274;-29
2022/06/12 00:25:13;;;;;;;;;;;;;;;;;;5015347;28;20345;-29
2022/06/12 00:27:39;;;;;;;;;;;;;;;;;;5015370;28;19909;-29
2022/06/12 00:30:05;;;;;;;;;;;;;;;;;;5015347;28;19921;-29
2022/06/12 00:32:31;;;;;;;;;;;;;;;;;;5015212;28;19970;-30
2022/06/12 00:34:57;;;;;;;;;;;;;;;;;;5015346;28;19909;-29
2022/06/12 00:37:23;;;;;;;;;;;;;;;;;;5015536;28;19921;-29
2022/06/12 00:39:49;;;;;;;;;;;;;;;;;;5015416;28;19940;-29
2022/06/12 00:42:15;;;;;;;;;;;;;;;;;;5015146;28;20244;-29
2022/06/12 00:44:42;;;;;;;;;;;;;;;;;;5015200;28;19913;-29
2022/06/12 00:47:08;;;;;;;;;;;;;;;;;;5015159;28;19968;-29
2022/06/12 00:49:34;;;;;;;;;;;;;;;;;;5015664;28;20000;-29
2022/06/12 00:52:00;;;;;;;;;;;;;;;;;;5015070;28;19933;-30
2022/06/12 00:54:26;;;;;;;;;;;;;;;;;;5015036;28;19968;-29
2022/06/12 00:56:53;;;;;;;;;;;;;;;;;;5015628;28;19917;-30
2022/06/12 00:59:19;;;;;;;;;;;;;;;;;;5015001;28;19960;-30
2022/06/12 01:01:45;;;;;;;;;;;;;;;;;;5015029;28;20015;-29
2022/06/12 01:06:56;;;;;;;;;;;;;;;;;;5015374;28;19921;-30
2022/06/12 01:09:22;;;;;;;;;;;;;;;;;;5014008;28;19913;-29
2022/06/12 01:11:48;;;;;;;;;;;;;;;;;;5014850;28;19913;-29
2022/06/12 01:14:14;;;;;;;;;;;;;;;;;;5015530;28;19909;-30
2022/06/12 01:16:45;;;;;;;;;;;;;;;;;;5014875;28;19928;-30
2022/06/12 01:19:11;;;;;;;;;;;;;;;;;;5015134;28;19917;-29
2022/06/12 01:21:37;;;;;;;;;;;;;;;;;;5015120;28;19921;-29
2022/06/12 01:24:03;;;;;;;;;;;;;;;;;;5014758;28;20375;-29
2022/06/12 01:26:29;;;;;;;;;;;;;;;;;;5015658;28;19909;-29
2022/06/12 01:28:55;;;;;;;;;;;;;;;;;;5014832;28;19914;-29
2022/06/12 01:31:21;;;;;;;;;;;;;;;;;;5015088;28;20067;-30
2022/06/12 01:33:47;;;;;;;;;;;;;;;;;;5015427;28;19914;-29
2022/06/12 01:36:13;;;;;;;;;;;;;;;;;;5018866;28;19917;-29
2022/06/12 01:38:39;;;;;;;;;;;;;;;;;;5018296;28;20290;-29
2022/06/12 01:41:05;;;;;;;;;;;;;;;;;;5018169;28;19920;-29
2022/06/12 01:43:31;;;;;;;;;;;;;;;;;;5018141;28;19914;-29
2022/06/12 01:45:57;;;;;;;;;;;;;;;;;;5018485;28;20019;-29
2022/06/12 01:48:23;;;;;;;;;;;;;;;;;;5018106;28;19923;-30
2022/06/12 01:50:49;;;;;;;;;;;;;;;;;;5018381;28;20243;-30
2022/06/12 01:53:15;;;;;;;;;;;;;;;;;;5017966;28;19920;-29
2022/06/12 01:55:41;;;;;;;;;;;;;;;;;;5017998;28;20327;-30
2022/06/12 01:58:07;;;;;;;;;;;;;;;;;;5017931;28;19914;-29
2022/06/12 02:00:33;;;;;;;;;;;;;;;;;;5018135;28;19921;-29
2022/06/12 02:02:59;;;;;;;;;;;;;;;;;;5017749;28;19924;-29
2022/06/12 02:05:25;;;;;;;;;;;;;;;;;;5018388;28;19971;-29
2022/06/12 02:07:51;;;;;;;;;;;;;;;;;;5018040;28;19914;-30
2022/06/12 02:10:17;;;;;;;;;;;;;;;;;;5017968;28;19924;-30
2022/06/12 02:15:28;;;;;;;;;;;;;;;;;;5017702;28;20256;-30
2022/06/12 02:17:54;;;;;;;;;;;;;;;;;;5017521;28;20348;-29
2022/06/12 02:20:19;;;;;;;;;;;;;;;;;;5017730;28;19914;-29
2022/06/12 02:22:46;;;;;;;;;;;;;;;;;;5017396;28;20353;-29
2022/06/12 02:25:12;;;;;;;;;;;;;;;;;;5017438;28;19909;-29
2022/06/12 02:27:38;;;;;;;;;;;;;;;;;;5017375;28;19970;-30
2022/06/12 02:30:04;;;;;;;;;;;;;;;;;;5017320;28;19976;-30
2022/06/12 02:32:30;;;;;;;;;;;;;;;;;;5017237;28;19914;-30
2022/06/12 02:34:56;;;;;;;;;;;;;;;;;;5017242;28;19913;-30
2022/06/12 02:37:22;;;;;;;;;;;;;;;;;;5017207;28;19960;-30
2022/06/12 02:39:49;;;;;;;;;;;;;;;;;;5017103;28;20389;-29
2022/06/12 02:42:15;;;;;;;;;;;;;;;;;;5018089;28;19992;-30
2022/06/12 02:44:42;;;;;;;;;;;;;;;;;;5017134;28;19968;-30
2022/06/12 02:47:08;;;;;;;;;;;;;;;;;;5016228;28;19920;-30
2022/06/12 02:49:34;;;;;;;;;;;;;;;;;;5016890;28;19917;-30
2022/06/12 02:52:00;;;;;;;;;;;;;;;;;;5016836;28;19920;-29
2022/06/12 02:54:26;;;;;;;;;;;;;;;;;;5016864;28;19957;-30
2022/06/12 02:56:52;;;;;;;;;;;;;;;;;;5016865;28;19972;-30
2022/06/12 02:59:20;;;;;;;;;;;;;;;;;;5016989;28;19928;-29
2022/06/12 03:01:46;;;;;;;;;;;;;;;;;;5016739;28;19944;-29
2022/06/12 03:04:12;;;;;;;;;;;;;;;;;;5016650;28;19921;-30
2022/06/12 03:06:40;;;;;;;;;;;;;;;;;;5017163;28;19913;-29
2022/06/12 03:09:06;;;;;;;;;;;;;;;;;;5017440;28;19988;-29
2022/06/12 03:11:33;;;;;;;;;;;;;;;;;;5017628;28;19987;-30
2022/06/12 03:13:59;;;;;;;;;;;;;;;;;;5016449;28;20022;-30
2022/06/12 03:16:27;;;;;;;;;;;;;;;;;;5016457;28;19914;-29
2022/06/12 03:18:54;;;;;;;;;;;;;;;;;;5016704;28;20260;-29
2022/06/12 03:21:20;;;;;;;;;;;;;;;;;;5016569;28;19928;-30
2022/06/12 03:23:46;;;;;;;;;;;;;;;;;;5016314;28;20272;-30
2022/06/12 03:26:12;;;;;;;;;;;;;;;;;;5016870;28;19917;-29
2022/06/12 03:28:38;;;;;;;;;;;;;;;;;;5016845;28;19923;-30
2022/06/12 03:31:04;;;;;;;;;;;;;;;;;;5015311;28;20000;-30
2022/06/12 03:33:30;;;;;;;;;;;;;;;;;;5016154;28;19913;-29
2022/06/12 03:35:56;;;;;;;;;;;;;;;;;;5016664;28;19920;-29
2022/06/12 03:38:22;;;;;;;;;;;;;;;;;;5016084;28;19925;-30
2022/06/12 03:40:48;;;;;;;;;;;;;;;;;;5016254;28;19917;-29
2022/06/12 03:43:14;;;;;;;;;;;;;;;;;;5016017;28;19920;-29
2022/06/12 03:45:42;;;;;;;;;;;;;;;;;;5016547;28;19909;-29
2022/06/12 03:48:08;;;;;;;;;;;;;;;;;;5015891;28;19913;-29
2022/06/12 03:50:34;;;;;;;;;;;;;;;;;;5015866;28;19959;-29
2022/06/12 03:53:00;;;;;;;;;;;;;;;;;;5016020;28;19940;-30
2022/06/12 03:57:50;;;;;;;;;;;;;;;;;;5016330;28;19910;-29
2022/06/12 03:58:12;;;;;;;;;;;;;;;;;;5015582;28;20264;-30
2022/06/12 04:00:38;;;;;;;;;;;;;;;;;;5015603;28;19929;-29
2022/06/12 04:03:04;;;;;;;;;;;;;;;;;;5015410;28;19921;-30
2022/06/12 04:05:30;;;;;;;;;;;;;;;;;;5015740;28;20349;-29
2022/06/12 04:07:56;;;;;;;;;;;;;;;;;;5015913;28;20347;-29
2022/06/12 04:10:22;;;;;;;;;;;;;;;;;;5015569;28;19949;-30
2022/06/12 04:12:48;;;;;;;;;;;;;;;;;;5015505;28;19909;-30
2022/06/12 04:15:14;;;;;;;;;;;;;;;;;;5015812;28;19914;-30
2022/06/12 04:17:40;;;;;;;;;;;;;;;;;;5015739;28;19913;-29
2022/06/12 04:20:06;;;;;;;;;;;;;;;;;;5015677;28;19914;-29
2022/06/12 04:22:32;;;;;;;;;;;;;;;;;;5015360;28;20274;-29
2022/06/12 04:24:58;;;;;;;;;;;;;;;;;;5015964;28;19910;-30
2022/06/12 04:27:24;;;;;;;;;;;;;;;;;;5015626;28;19917;-30
2022/06/12 04:29:50;;;;;;;;;;;;;;;;;;5015354;28;19924;-29
2022/06/12 04:32:16;;;;;;;;;;;;;;;;;;5015313;28;20337;-29
2022/06/12 04:34:42;;;;;;;;;;;;;;;;;;5015249;28;19987;-29
2022/06/12 04:37:08;;;;;;;;;;;;;;;;;;5015907;28;19910;-30
2022/06/12 04:39:35;;;;;;;;;;;;;;;;;;5015721;28;19917;-30
2022/06/12 04:42:01;;;;;;;;;;;;;;;;;;5015505;28;19917;-30
2022/06/12 04:44:27;;;;;;;;;;;;;;;;;;5015461;28;20352;-30
2022/06/12 04:46:53;;;;;;;;;;;;;;;;;;5015223;28;19920;-29
2022/06/12 04:49:19;;;;;;;;;;;;;;;;;;5015677;28;19914;-30
2022/06/12 04:51:45;;;;;;;;;;;;;;;;;;5015672;28;19909;-29
2022/06/12 04:54:11;;;;;;;;;;;;;;;;;;5015108;28;19949;-29
2022/06/12 04:56:37;;;;;;;;;;;;;;;;;;5015354;28;19920;-30
2022/06/12 04:59:03;;;;;;;;;;;;;;;;;;5015269;28;19928;-29
2022/06/12 05:01:29;;;;;;;;;;;;;;;;;;5015373;28;19992;-29
2022/06/12 05:03:56;;;;;;;;;;;;;;;;;;5014850;28;19922;-29
2022/06/12 05:06:22;;;;;;;;;;;;;;;;;;5014974;28;19955;-29
2022/06/12 05:08:48;;;;;;;;;;;;;;;;;;5015728;28;19913;-29
2022/06/12 05:11:14;;;;;;;;;;;;;;;;;;5018887;28;20264;-29
2022/06/12 05:13:40;;;;;;;;;;;;;;;;;;5018717;28;19920;-29
2022/06/12 05:16:06;;;;;;;;;;;;;;;;;;5018713;28;20362;-30
2022/06/12 05:18:32;;;;;;;;;;;;;;;;;;5019309;28;19913;-29
2022/06/12 05:20:58;;;;;;;;;;;;;;;;;;5018593;28;19929;-30
2022/06/12 05:23:23;;;;;;;;;;;;;;;;;;5018544;28;19914;-30
2022/06/12 05:25:49;;;;;;;;;;;;;;;;;;5018621;28;20307;-29
2022/06/12 05:28:15;;;;;;;;;;;;;;;;;;5018839;28;19940;-29
2022/06/12 05:30:41;;;;;;;;;;;;;;;;;;5018491;28;19979;-30
2022/06/12 05:33:07;;;;;;;;;;;;;;;;;;5018503;28;19979;-29
2022/06/12 05:35:33;;;;;;;;;;;;;;;;;;5018300;28;19909;-29
2022/06/12 05:38:00;;;;;;;;;;;;;;;;;;5018625;28;19913;-29
2022/06/12 05:40:27;;;;;;;;;;;;;;;;;;5018157;28;19914;-29
2022/06/12 05:42:53;;;;;;;;;;;;;;;;;;5018143;28;19921;-29
2022/06/12 05:45:19;;;;;;;;;;;;;;;;;;5018506;28;19906;-30
2022/06/12 05:47:45;;;;;;;;;;;;;;;;;;5018129;28;19920;-29
2022/06/12 05:50:11;;;;;;;;;;;;;;;;;;5017175;28;19905;-29
2022/06/12 05:52:37;;;;;;;;;;;;;;;;;;5018251;28;20252;-30
2022/06/12 05:55:03;;;;;;;;;;;;;;;;;;5018049;28;19913;-29
2022/06/12 05:57:29;;;;;;;;;;;;;;;;;;5018221;28;19914;-29
2022/06/12 05:59:55;;;;;;;;;;;;;;;;;;5018123;28;19914;-30
2022/06/12 06:02:21;;;;;;;;;;;;;;;;;;5017856;28;19913;-30
2022/06/12 06:04:47;;;;;;;;;;;;;;;;;;5017634;28;20060;-30
2022/06/12 06:07:13;;;;;;;;;;;;;;;;;;5018353;28;19992;-29
2022/06/12 06:09:39;;;;;;;;;;;;;;;;;;5018009;28;19910;-29
2022/06/12 06:12:05;;;;;;;;;;;;;;;;;;5017560;28;20008;-29
2022/06/12 06:14:31;;;;;;;;;;;;;;;;;;5018199;28;20000;-29
2022/06/12 06:16:57;;;;;;;;;;;;;;;;;;5017634;28;19921;-29
2022/06/12 06:19:23;;;;;;;;;;;;;;;;;;5017674;28;20339;-29
2022/06/12 06:21:49;;;;;;;;;;;;;;;;;;5017705;28;19913;-29
2022/06/12 06:24:15;;;;;;;;;;;;;;;;;;5017473;28;20326;-29
2022/06/12 06:26:41;;;;;;;;;;;;;;;;;;5017414;28;19917;-30
2022/06/12 06:29:07;;;;;;;;;;;;;;;;;;5017676;28;19909;-29
2022/06/12 06:31:33;;;;;;;;;;;;;;;;;;5017577;28;19928;-29
2022/06/12 06:33:59;;;;;;;;;;;;;;;;;;5017268;28;20268;-29
2022/06/12 06:36:25;;;;;;;;;;;;;;;;;;5017514;28;19913;-29
2022/06/12 06:38:51;;;;;;;;;;;;;;;;;;5017168;28;19932;-29
2022/06/12 06:41:18;;;;;;;;;;;;;;;;;;5017350;28;19917;-29
2022/06/12 06:46:29;;;;;;;;;;;;;;;;;;5017482;28;19924;-29
2022/06/12 06:48:54;;;;;;;;;;;;;;;;;;5017025;28;20340;-29
2022/06/12 06:51:20;;;;;;;;;;;;;;;;;;5017268;28;19909;-30
2022/06/12 06:53:46;;;;;;;;;;;;;;;;;;5016877;28;19921;-29
2022/06/12 06:56:13;;;;;;;;;;;;;;;;;;5016932;28;19913;-29
2022/06/12 06:58:38;;;;;;;;;;;;;;;;;;5016840;28;19917;-30
2022/06/12 07:01:04;;;;;;;;;;;;;;;;;;5016759;28;20008;-30
2022/06/12 07:03:30;;;;;;;;;;;;;;;;;;5016571;28;19921;-29
2022/06/12 07:05:57;;;;;;;;;;;;;;;;;;5016677;28;19917;-29
2022/06/12 07:08:23;;;;;;;;;;;;;;;;;;5016715;28;19914;-29
2022/06/12 07:10:49;;;;;;;;;;;;;;;;;;5016601;28;20027;-29
2022/06/12 07:13:15;;;;;;;;;;;;;;;;;;5016452;28;19941;-29
2022/06/12 07:15:41;;;;;;;;;;;;;;;;;;5016459;28;19977;-29
2022/06/12 07:18:07;;;;;;;;;;;;;;;;;;5016436;28;19917;-29
2022/06/12 07:20:33;;;;;;;;;;;;;;;;;;5016899;28;20344;-29
2022/06/12 07:22:59;;;;;;;;;;;;;;;;;;5016257;28;19913;-29
2022/06/12 07:25:24;;;;;;;;;;;;;;;;;;5016314;28;19952;-29
2022/06/12 07:27:50;;;;;;;;;;;;;;;;;;5016620;28;19910;-29
2022/06/12 07:30:16;;;;;;;;;;;;;;;;;;5016209;28;19920;-29
2022/06/12 07:32:42;;;;;;;;;;;;;;;;;;5015631;28;19963;-29
2022/06/12 07:35:08;;;;;;;;;;;;;;;;;;5016161;28;19914;-29
2022/06/12 07:37:34;;;;;;;;;;;;;;;;;;5015174;28;20250;-29
2022/06/12 07:40:00;;;;;;;;;;;;;;;;;;5016592;28;19928;-29
2022/06/12 07:42:26;;;;;;;;;;;;;;;;;;5015965;28;20396;-29
2022/06/12 07:44:52;;;;;;;;;;;;;;;;;;5016247;28;19924;-29
2022/06/12 07:47:19;;;;;;;;;;;;;;;;;;5015996;28;19921;-29
2022/06/12 07:49:45;;;;;;;;;;;;;;;;;;5016184;28;19914;-29
2022/06/12 07:52:12;;;;;;;;;;;;;;;;;;5016062;28;19935;-29
2022/06/12 07:54:38;;;;;;;;;;;;;;;;;;5015886;28;19953;-29
2022/06/12 07:57:04;;;;;;;;;;;;;;;;;;5016089;28;19913;-29
2022/06/12 07:59:30;;;;;;;;;;;;;;;;;;5015695;28;19928;-29
2022/06/12 08:01:56;;;;;;;;;;;;;;;;;;5016121;28;19935;-29
2022/06/12 08:04:22;;;;;;;;;;;;;;;;;;5015504;28;19922;-29
2022/06/12 08:06:48;;;;;;;;;;;;;;;;;;5016144;28;19913;-29
2022/06/12 08:09:14;;;;;;;;;;;;;;;;;;5015841;28;20328;-29
2022/06/12 08:11:40;;;;;;;;;;;;;;;;;;5015591;28;20345;-29
2022/06/12 08:14:06;;;;;;;;;;;;;;;;;;5015443;28;19921;-29
2022/06/12 08:16:33;;;;;;;;;;;;;;;;;;5015550;28;19909;-28
2022/06/12 08:18:59;;;;;;;;;;;;;;;;;;5015394;28;20367;-29
2022/06/12 08:21:25;;;;;;;;;;;;;;;;;;5015408;28;20008;-29
2022/06/12 08:23:51;;;;;;;;;;;;;;;;;;5015260;28;19914;-29
2022/06/12 08:26:16;;;;;;;;;;;;;;;;;;5015620;28;19913;-29
2022/06/12 08:28:43;;;;;;;;;;;;;;;;;;5015393;28;19988;-29
2022/06/12 08:31:08;;;;;;;;;;;;;;;;;;5015865;28;19921;-29
2022/06/12 08:33:34;;;;;;;;;;;;;;;;;;5015212;28;19910;-29
2022/06/12 08:36:00;;;;;;;;;;;;;;;;;;5015550;28;19913;-28
2022/06/12 08:38:26;;;;;;;;;;;;;;;;;;5015543;28;19917;-30
2022/06/12 08:40:52;;;;;;;;;;;;;;;;;;5015789;28;19921;-29
2022/06/12 08:43:18;;;;;;;;;;;;;;;;;;5015263;28;20051;-29
2022/06/12 08:45:45;;;;;;;;;;;;;;;;;;5019265;28;19945;-29
2022/06/12 08:48:11;;;;;;;;;;;;;;;;;;5019525;28;20341;-29
2022/06/12 08:50:37;;;;;;;;;;;;;;;;;;5019261;28;19964;-30
2022/06/12 08:53:03;;;;;;;;;;;;;;;;;;5019638;28;19928;-29
2022/06/12 08:55:29;;;;;;;;;;;;;;;;;;5019141;28;19909;-29
2022/06/12 08:57:55;;;;;;;;;;;;;;;;;;5019397;28;19971;-29
2022/06/12 09:00:21;;;;;;;;;;;;;;;;;;5019207;28;19918;-29
2022/06/12 09:02:47;;;;;;;;;;;;;;;;;;5018774;28;19925;-29
2022/06/12 09:05:13;;;;;;;;;;;;;;;;;;5019247;28;19925;-29
2022/06/12 09:07:39;;;;;;;;;;;;;;;;;;5019249;28;19917;-29
2022/06/12 09:10:05;;;;;;;;;;;;;;;;;;5019173;28;19913;-29
2022/06/12 09:12:31;;;;;;;;;;;;;;;;;;5019526;28;19921;-29
2022/06/12 09:14:57;;;;;;;;;;;;;;;;;;5018748;28;20341;-29
2022/06/12 09:17:23;;;;;;;;;;;;;;;;;;5018952;28;19917;-29
2022/06/12 09:19:49;;;;;;;;;;;;;;;;;;5018596;28;19913;-29
2022/06/12 09:22:15;;;;;;;;;;;;;;;;;;5018920;28;19919;-29
2022/06/12 09:24:41;;;;;;;;;;;;;;;;;;5018893;28;19945;-29
2022/06/12 09:27:07;;;;;;;;;;;;;;;;;;5018553;28;20264;-28
2022/06/12 09:29:35;;;;;;;;;;;;;;;;;;5019050;28;19921;-29
2022/06/12 09:32:01;;;;;;;;;;;;;;;;;;5018654;28;19921;-29
2022/06/12 09:34:27;;;;;;;;;;;;;;;;;;5018427;28;20225;-29
2022/06/12 09:36:53;;;;;;;;;;;;;;;;;;5018361;28;19917;-29
2022/06/12 09:39:19;;;;;;;;;;;;;;;;;;5018256;28;20395;-28
2022/06/12 09:41:45;;;;;;;;;;;;;;;;;;5018249;28;19983;-29
2022/06/12 09:44:11;;;;;;;;;;;;;;;;;;5018151;28;19913;-28
2022/06/12 09:46:36;;;;;;;;;;;;;;;;;;5018766;28;19921;-29
2022/06/12 09:49:03;;;;;;;;;;;;;;;;;;5018405;28;19917;-29
2022/06/12 09:51:29;;;;;;;;;;;;;;;;;;5018131;28;19992;-29
2022/06/12 09:53:55;;;;;;;;;;;;;;;;;;5017973;28;19944;-30
2022/06/12 09:56:21;;;;;;;;;;;;;;;;;;5017467;28;19914;-30
2022/06/12 09:58:46;;;;;;;;;;;;;;;;;;5018513;28;19913;-30
2022/06/12 10:01:12;;;;;;;;;;;;;;;;;;5017891;28;20403;-30
2022/06/12 10:03:39;;;;;;;;;;;;;;;;;;5017645;28;19929;-30
2022/06/12 10:06:05;;;;;;;;;;;;;;;;;;5017815;28;19910;-30
2022/06/12 10:08:31;;;;;;;;;;;;;;;;;;5017821;28;19913;-30
2022/06/12 10:10:57;;;;;;;;;;;;;;;;;;5018015;28;19970;-31
2022/06/12 10:13:23;;;;;;;;;;;;;;;;;;5017632;28;19968;-30
2022/06/12 10:15:50;;;;;;;;;;;;;;;;;;5017943;28;19909;-29
2022/06/12 10:18:16;;;;;;;;;;;;;;;;;;5017595;28;20340;-30
2022/06/12 10:20:42;;;;;;;;;;;;;;;;;;5017528;28;19924;-30
2022/06/12 10:23:08;;;;;;;;;;;;;;;;;;5017718;28;19913;-30
2022/06/12 10:25:34;;;;;;;;;;;;;;;;;;5017540;28;19917;-29
2022/06/12 10:28:01;;;;;;;;;;;;;;;;;;5017430;28;19913;-30
2022/06/12 10:30:27;;;;;;;;;;;;;;;;;;5017736;28;20248;-30
2022/06/12 10:32:53;;;;;;;;;;;;;;;;;;5017560;28;19925;-30
2022/06/12 10:35:20;;;;;;;;;;;;;;;;;;5017580;28;19909;-30
2022/06/12 10:37:45;;;;;;;;;;;;;;;;;;5017217;28;19913;-30
2022/06/12 10:40:13;;;;;;;;;;;;;;;;;;5017125;28;19924;-30
2022/06/12 10:42:39;;;;;;;;;;;;;;;;;;5017399;28;19910;-30
2022/06/12 10:45:05;;;;;;;;;;;;;;;;;;5017108;28;20268;-29
2022/06/12 10:47:31;;;;;;;;;;;;;;;;;;5017107;28;19968;-30
2022/06/12 10:49:57;;;;;;;;;;;;;;;;;;5017579;28;19913;-30
2022/06/12 10:52:23;;;;;;;;;;;;;;;;;;5017129;28;19921;-30
2022/06/12 10:54:49;;;;;;;;;;;;;;;;;;5017485;28;19921;-30
2022/06/12 10:57:16;;;;;;;;;;;;;;;;;;5016995;28;20226;-30
2022/06/12 10:59:42;;;;;;;;;;;;;;;;;;5016767;28;20008;-29
2022/06/12 11:02:08;;;;;;;;;;;;;;;;;;5016769;28;19917;-30
2022/06/12 11:04:34;;;;;;;;;;;;;;;;;;5016622;28;19921;-31
2022/06/12 11:07:00;;;;;;;;;;;;;;;;;;5016104;28;19925;-30
2022/06/12 11:09:26;;;;;;;;;;;;;;;;;;5016653;28;19910;-30
2022/06/12 11:11:52;;;;;;;;;;;;;;;;;;5016789;28;20000;-30
2022/06/12 11:14:19;;;;;;;;;;;;;;;;;;5016566;28;19910;-30
2022/06/12 11:16:45;;;;;;;;;;;;;;;;;;5016732;28;19964;-29
2022/06/12 11:19:11;;;;;;;;;;;;;;;;;;5016436;28;19963;-30
2022/06/12 11:21:37;;;;;;;;;;;;;;;;;;5016376;28;20008;-31
2022/06/12 11:24:03;;;;;;;;;;;;;;;;;;5016625;28;20007;-30
2022/06/12 11:26:29;;;;;;;;;;;;;;;;;;5016628;28;19913;-30
2022/06/12 11:28:55;;;;;;;;;;;;;;;;;;5016332;28;20300;-30
2022/06/12 11:31:21;;;;;;;;;;;;;;;;;;5016832;28;19909;-30
2022/06/12 11:33:47;;;;;;;;;;;;;;;;;;5016424;28;19913;-30
2022/06/12 11:36:14;;;;;;;;;;;;;;;;;;5016463;28;19914;-30
2022/06/12 11:38:40;;;;;;;;;;;;;;;;;;5016369;28;20008;-30
2022/06/12 11:41:06;;;;;;;;;;;;;;;;;;5016551;28;20365;-30
2022/06/12 11:43:32;;;;;;;;;;;;;;;;;;5015956;28;19913;-30
2022/06/12 11:45:58;;;;;;;;;;;;;;;;;;5015991;28;19934;-30
2022/06/12 11:48:24;;;;;;;;;;;;;;;;;;5016326;28;19920;-30
2022/06/12 11:50:50;;;;;;;;;;;;;;;;;;5016283;28;19975;-30
2022/06/12 11:53:16;;;;;;;;;;;;;;;;;;5015739;28;20341;-30
2022/06/12 11:55:42;;;;;;;;;;;;;;;;;;5015856;28;19910;-30
2022/06/12 11:58:08;;;;;;;;;;;;;;;;;;5015812;28;19920;-30
2022/06/12 12:00:34;;;;;;;;;;;;;;;;;;5015698;28;19913;-30
2022/06/12 12:03:00;;;;;;;;;;;;;;;;;;5015466;28;19925;-30
2022/06/12 12:05:26;;;;;;;;;;;;;;;;;;5016008;28;19910;-30
2022/06/12 12:07:52;;;;;;;;;;;;;;;;;;5015922;28;19913;-30
2022/06/12 12:10:18;;;;;;;;;;;;;;;;;;5015620;28;19992;-30
2022/06/12 12:12:44;;;;;;;;;;;;;;;;;;5015664;28;19913;-31
2022/06/12 12:15:10;;;;;;;;;;;;;;;;;;5015557;28;19932;-30
2022/06/12 12:17:36;;;;;;;;;;;;;;;;;;5015397;28;19963;-30
2022/06/12 12:20:02;;;;;;;;;;;;;;;;;;5015432;28;20029;-30
2022/06/12 12:22:28;;;;;;;;;;;;;;;;;;5015653;28;19952;-30
2022/06/12 12:24:54;;;;;;;;;;;;;;;;;;5015474;28;20055;-30
2022/06/12 12:27:20;;;;;;;;;;;;;;;;;;5015425;28;20353;-30
2022/06/12 12:29:46;;;;;;;;;;;;;;;;;;5015664;28;20039;-30
2022/06/12 12:32:12;;;;;;;;;;;;;;;;;;5015995;28;19989;-30
2022/06/12 12:34:38;;;;;;;;;;;;;;;;;;5015326;28;19924;-30
2022/06/12 12:42:33;;;;;;;;;;;;;;;;;;5015492;28;20364;-30
2022/06/12 12:44:59;;;;;;;;;;;;;;;;;;5015509;28;19909;-30
2022/06/12 12:47:26;;;;;;;;;;;;;;;;;;5015194;28;19983;-30
2022/06/12 12:49:52;;;;;;;;;;;;;;;;;;5015503;28;19936;-30
2022/06/12 12:52:18;;;;;;;;;;;;;;;;;;5015081;28;19914;-29
2022/06/12 12:54:44;;;;;;;;;;;;;;;;;;5015195;28;19916;-29
2022/06/12 12:57:10;;;;;;;;;;;;;;;;;;5014980;28;19972;-29
2022/06/12 12:59:36;;;;;;;;;;;;;;;;;;5015050;28;20352;-30
2022/06/12 13:02:02;;;;;;;;;;;;;;;;;;5015000;28;19913;-30
2022/06/12 13:04:28;;;;;;;;;;;;;;;;;;5015020;28;19972;-30
2022/06/12 13:06:54;;;;;;;;;;;;;;;;;;5015027;28;19964;-30
2022/06/12 13:09:20;;;;;;;;;;;;;;;;;;5015587;28;19909;-29
2022/06/12 13:11:46;;;;;;;;;;;;;;;;;;5015263;28;19920;-30
2022/06/12 13:14:12;;;;;;;;;;;;;;;;;;5014927;28;20344;-30
2022/06/12 13:16:38;;;;;;;;;;;;;;;;;;5014997;28;19913;-30
2022/06/12 13:19:04;;;;;;;;;;;;;;;;;;5014885;28;19917;-30
2022/06/12 13:21:30;;;;;;;;;;;;;;;;;;5014918;28;19914;-30
2022/06/12 13:23:56;;;;;;;;;;;;;;;;;;5014777;28;20256;-30
2022/06/12 13:26:22;;;;;;;;;;;;;;;;;;5015428;28;19910;-30
2022/06/12 13:28:48;;;;;;;;;;;;;;;;;;5014835;28;20360;-30
2022/06/12 13:31:14;;;;;;;;;;;;;;;;;;5017680;28;19909;-30
2022/06/12 13:33:40;;;;;;;;;;;;;;;;;;5018419;28;19921;-30
2022/06/12 13:36:06;;;;;;;;;;;;;;;;;;5018489;28;20292;-30
2022/06/12 13:38:32;;;;;;;;;;;;;;;;;;5018664;28;20249;-30
2022/06/12 13:40:58;;;;;;;;;;;;;;;;;;5018297;28;19914;-30
2022/06/12 13:43:24;;;;;;;;;;;;;;;;;;5018196;28;19949;-29
2022/06/12 13:45:50;;;;;;;;;;;;;;;;;;5018588;28;19921;-29
2022/06/12 13:48:16;;;;;;;;;;;;;;;;;;5019045;28;20396;-30
2022/06/12 13:50:44;;;;;;;;;;;;;;;;;;5018440;28;19910;-30
2022/06/12 13:53:13;;;;;;;;;;;;;;;;;;5017988;28;20349;-30
2022/06/12 13:55:39;;;;;;;;;;;;;;;;;;5018363;28;19909;-29
2022/06/12 13:58:05;;;;;;;;;;;;;;;;;;5018035;28;19914;-30
2022/06/12 14:00:31;;;;;;;;;;;;;;;;;;5018198;28;19914;-30
2022/06/12 14:02:57;;;;;;;;;;;;;;;;;;5018063;28;19917;-30
2022/06/12 14:05:24;;;;;;;;;;;;;;;;;;5017915;28;20008;-30
2022/06/12 14:07:50;;;;;;;;;;;;;;;;;;5017799;28;19957;-30
2022/06/12 14:10:16;;;;;;;;;;;;;;;;;;5017846;28;19949;-30
2022/06/12 14:12:43;;;;;;;;;;;;;;;;;;5017716;28;19920;-29
2022/06/12 14:15:09;;;;;;;;;;;;;;;;;;5018589;28;19909;-29
2022/06/12 14:17:35;;;;;;;;;;;;;;;;;;5017711;28;19972;-30
2022/06/12 14:20:01;;;;;;;;;;;;;;;;;;5017536;28;19918;-30
2022/06/12 14:22:27;;;;;;;;;;;;;;;;;;5017547;28;19968;-30
2022/06/12 14:24:53;;;;;;;;;;;;;;;;;;5017567;28;20357;-29
2022/06/12 14:27:19;;;;;;;;;;;;;;;;;;5018024;28;19917;-30
2022/06/12 14:29:45;;;;;;;;;;;;;;;;;;5017491;28;19910;-30
2022/06/12 14:32:11;;;;;;;;;;;;;;;;;;5017635;28;19913;-30
2022/06/12 14:34:37;;;;;;;;;;;;;;;;;;5017309;28;19914;-30
2022/06/12 14:37:03;;;;;;;;;;;;;;;;;;5017324;28;19914;-30
2022/06/12 14:39:29;;;;;;;;;;;;;;;;;;5017219;28;20288;-30
2022/06/12 14:41:55;;;;;;;;;;;;;;;;;;5017149;28;19952;-29
2022/06/12 14:44:21;;;;;;;;;;;;;;;;;;5017142;28;19975;-30
2022/06/12 14:46:47;;;;;;;;;;;;;;;;;;5017672;28;20000;-30
2022/06/12 14:49:13;;;;;;;;;;;;;;;;;;5017044;28;19987;-30
2022/06/12 14:51:39;;;;;;;;;;;;;;;;;;5017342;28;19910;-31
2022/06/12 14:54:05;;;;;;;;;;;;;;;;;;5017155;28;20000;-30
2022/06/12 14:56:31;;;;;;;;;;;;;;;;;;5016959;28;20297;-29
2022/06/12 14:58:57;;;;;;;;;;;;;;;;;;5016859;28;19914;-30
2022/06/12 15:01:23;;;;;;;;;;;;;;;;;;5016779;28;19921;-30
2022/06/12 15:03:49;;;;;;;;;;;;;;;;;;5025571;28;19928;-30
2022/06/12 15:06:15;;;;;;;;;;;;;;;;;;5021292;28;20044;-30
2022/06/12 15:08:41;;;;;;;;;;;;;;;;;;5016963;28;19940;-30
2022/06/12 15:11:07;;;;;;;;;;;;;;;;;;5016799;28;20309;-29
2022/06/12 15:13:33;;;;;;;;;;;;;;;;;;5017106;28;19949;-30
2022/06/12 15:15:59;;;;;;;;;;;;;;;;;;5016574;28;20288;-30
2022/06/12 15:18:25;;;;;;;;;;;;;;;;;;5016531;28;20410;-30
2022/06/12 15:20:51;;;;;;;;;;;;;;;;;;5016436;28;19921;-30
2022/06/12 15:23:17;;;;;;;;;;;;;;;;;;5016494;28;20349;-30
2022/06/12 15:31:13;;;;;;;;;;;;;;;;;;5016416;28;19991;-30
2022/06/12 15:33:39;;;;;;;;;;;;;;;;;;5016158;28;19913;-30
2022/06/12 15:36:05;;;;;;;;;;;;;;;;;;5016273;28;19909;-30
2022/06/12 15:38:31;;;;;;;;;;;;;;;;;;5016502;28;19913;-30
2022/06/12 15:40:57;;;;;;;;;;;;;;;;;;5016605;28;19924;-31
2022/06/12 15:43:23;;;;;;;;;;;;;;;;;;5016036;28;19913;-30
2022/06/12 15:45:49;;;;;;;;;;;;;;;;;;5016341;28;20337;-30
2022/06/12 15:48:15;;;;;;;;;;;;;;;;;;5016564;28;19913;-30
2022/06/12 15:50:41;;;;;;;;;;;;;;;;;;5016058;28;19921;-30
2022/06/12 15:53:07;;;;;;;;;;;;;;;;;;5015677;28;19968;-29
2022/06/12 15:55:33;;;;;;;;;;;;;;;;;;5016172;28;19967;-29
2022/06/12 15:57:59;;;;;;;;;;;;;;;;;;5016088;28;19925;-30
2022/06/12 16:00:25;;;;;;;;;;;;;;;;;;5015753;28;19963;-30
2022/06/12 16:02:50;;;;;;;;;;;;;;;;;;5015960;28;19913;-30
2022/06/12 16:05:16;;;;;;;;;;;;;;;;;;5015585;28;19914;-30
2022/06/12 16:07:43;;;;;;;;;;;;;;;;;;5016052;28;19964;-30
2022/06/12 16:10:11;;;;;;;;;;;;;;;;;;5015984;28;20332;-30
2022/06/12 16:12:37;;;;;;;;;;;;;;;;;;5015854;28;19913;-31
2022/06/12 16:15:03;;;;;;;;;;;;;;;;;;5015658;28;20276;-30
2022/06/12 16:17:29;;;;;;;;;;;;;;;;;;5015786;28;19924;-30
2022/06/12 16:19:55;;;;;;;;;;;;;;;;;;5015499;28;19987;-30
2022/06/12 16:22:22;;;;;;;;;;;;;;;;;;5015662;28;19936;-29
2022/06/12 16:24:47;;;;;;;;;;;;;;;;;;5015410;28;19979;-30
2022/06/12 16:27:13;;;;;;;;;;;;;;;;;;5015511;28;20062;-30
2022/06/12 16:29:40;;;;;;;;;;;;;;;;;;5015971;28;20116;-31
2022/06/12 16:32:06;;;;;;;;;;;;;;;;;;5015387;28;19924;-29
2022/06/12 16:34:32;;;;;;;;;;;;;;;;;;5015383;28;19914;-30
2022/06/12 16:36:59;;;;;;;;;;;;;;;;;;5015403;28;19913;-30
2022/06/12 16:39:25;;;;;;;;;;;;;;;;;;5015310;28;19929;-29
2022/06/12 16:41:56;;;;;;;;;;;;;;;;;;5015696;28;19918;-30
2022/06/12 16:44:22;;;;;;;;;;;;;;;;;;5015251;28;19909;-30
2022/06/12 16:46:49;;;;;;;;;;;;;;;;;;5015524;28;19981;-30
2022/06/12 16:49:15;;;;;;;;;;;;;;;;;;5015462;28;20008;-29
2022/06/12 16:51:41;;;;;;;;;;;;;;;;;;5015140;28;20381;-30
2022/06/12 16:54:06;;;;;;;;;;;;;;;;;;5015623;28;20008;-30
2022/06/12 16:56:33;;;;;;;;;;;;;;;;;;5015158;28;20004;-29